Decoded Metar for LZZI (ZILINA in SLOVAKIA) (IATA:N/A) | Meteo·Mobile Aviation Weather
aviador You're here:

LZZI Decoded Metar

ZILINA in SLOVAKIA
Report Time2019-02-16 01:30:00
UTC Time2019-02-16 01:41:47
Flight Rules ifr IFR
WindVRB at 01 kt
Visibility2100 m
Phenomena:Mist
Clouds:N/A
CeilingNone
Temp-2°C (ISA -15)
Dew Point-2°C (100% RH)
AAT-4.6°C
QNH1032 hPa
Density Alt-1,385 ft
Elevation1,020 ft
Report Wrong Elevation
Raw Report
LZZI 160130Z VRB01KT 2100 BR NSC M02/M02 Q1032=

Extra information for LZZI:More info

Metar Taf Metar & Taf Last 4 Metars F.Rules Stats Wind Profile Meteogram Temp Stats Airport Information Weather charts Add Link Nearby VenuesMetar ALERT Operation Metar Decoded Social comments